Time;durP1;ratioP1;P1;durP2;ratioP2;P2;SDS_P1;SDS_P2;PMS_P1;PMS_P2;Temp;Humidity;BMP_temperature;BMP_pressure;BME280_temperature;BME280_humidity;BME280_pressure;Samples;Min_cycle;Max_cycle;Signal;HPM_P1;HPM_P2
2021/12/25 07:25:13;;;;;;;;;14.67;11.67;;;;;11.04;76.33;100050.16;5436275;23;45298;-95
2021/12/25 07:27:39;;;;;;;;;18.00;12.33;;;;;11.10;76.13;100067.84;4955276;28;45375;-96
2021/12/25 07:30:06;;;;;;;;;12.33;10.33;;;;;11.12;76.56;100063.53;4958588;28;45579;-95
2021/12/25 07:32:32;;;;;;;;;16.67;11.33;;;;;11.10;76.17;100054.72;4952643;28;45610;-93
2021/12/25 07:34:57;;;;;;;;;16.67;13.67;;;;;11.14;75.88;100061.84;4960163;28;47693;-96
2021/12/25 07:37:30;;;;;;;;;21.67;16.67;;;;;11.15;76.32;100068.88;4957645;28;45552;-96
2021/12/25 07:39:56;;;;;;;;;14.33;14.00;;;;;11.17;76.25;100067.19;4974608;28;45469;-95
2021/12/25 07:42:21;;;;;;;;;14.00;12.33;;;;;11.14;76.30;100053.94;4958822;28;45521;-96
2021/12/25 07:44:53;;;;;;;;;16.67;16.33;;;;;11.09;76.41;100045.03;4977239;28;47385;-96
2021/12/25 07:47:21;;;;;;;;;19.00;16.00;;;;;11.06;76.27;100044.94;4975934;28;45390;-91
2021/12/25 07:49:46;;;;;;;;;18.67;14.33;;;;;11.09;75.77;100039.78;4956838;28;45627;-93
2021/12/25 07:52:13;;;;;;;;;13.33;11.67;;;;;11.11;76.02;100043.34;4954352;28;45376;-90
2021/12/25 07:54:39;;;;;;;;;14.00;10.33;;;;;11.11;75.79;100045.97;4972266;28;46225;-89
2021/12/25 07:57:04;;;;;;;;;17.00;12.67;;;;;11.21;76.09;100065.53;4973211;28;45400;-91
2021/12/25 07:59:29;;;;;;;;;20.33;14.33;;;;;11.23;76.22;100065.59;4955225;28;45724;-92
2021/12/25 08:01:56;;;;;;;;;15.00;15.00;;;;;11.23;75.96;100063.88;4960538;28;45376;-91
2021/12/25 08:04:21;;;;;;;;;18.33;16.33;;;;;11.30;75.87;100072.81;4949097;28;47965;-93
2021/12/25 08:06:47;;;;;;;;;18.33;16.00;;;;;11.28;75.82;100071.91;4967603;28;45890;-93
2021/12/25 08:09:12;;;;;;;;;12.67;11.33;;;;;11.24;75.48;100068.25;4965375;28;45327;-93
2021/12/25 08:11:38;;;;;;;;;13.67;12.00;;;;;11.25;75.79;100074.41;4946500;28;45424;-93
2021/12/25 08:14:03;;;;;;;;;17.33;16.67;;;;;11.27;75.94;100080.59;4954480;28;48082;-93
2021/12/25 08:16:28;;;;;;;;;16.33;14.00;;;;;11.28;75.84;100085.03;4953729;28;45454;-92
2021/12/25 08:18:54;;;;;;;;;17.33;15.33;;;;;11.27;75.68;100083.22;4970670;28;45565;-90
2021/12/25 08:21:19;;;;;;;;;22.33;15.00;;;;;11.33;75.97;100088.69;4970390;28;45315;-90
2021/12/25 08:23:45;;;;;;;;;17.00;15.33;;;;;11.30;75.82;100075.44;4971059;28;45393;-90
2021/12/25 08:26:10;;;;;;;;;19.00;17.00;;;;;11.29;75.91;100077.19;4947772;28;45646;-90
2021/12/25 08:28:39;;;;;;;;;20.00;16.67;;;;;11.34;75.82;100084.34;4967104;28;46033;-95
2021/12/25 08:31:05;;;;;;;;;19.67;18.33;;;;;11.35;75.90;100080.84;4968227;28;45425;-89
2021/12/25 08:33:30;;;;;;;;;21.00;16.00;;;;;11.36;75.83;100083.53;4970480;28;46564;-91
2021/12/25 08:35:55;;;;;;;;;20.00;18.00;;;;;11.41;75.40;100078.44;4950448;28;45449;-90
2021/12/25 08:38:21;;;;;;;;;17.67;17.67;;;;;11.40;75.97;100079.25;4954187;28;45469;-88
2021/12/25 08:40:47;;;;;;;;;16.33;16.33;;;;;11.43;75.72;100082.00;4971072;28;45492;-90
2021/12/25 08:43:14;;;;;;;;;17.33;15.33;;;;;11.44;75.50;100085.50;4953450;28;48316;-91
2021/12/25 08:45:46;;;;;;;;;17.00;14.33;;;;;11.49;75.57;100092.66;4968826;28;45466;-89
2021/12/25 08:48:22;;;;;;;;;19.00;17.00;;;;;11.49;75.63;100094.44;4953290;28;45385;-91
2021/12/25 08:50:52;;;;;;;;;21.67;20.00;;;;;11.54;75.31;100094.56;4969547;28;45340;-91
2021/12/25 08:53:19;;;;;;;;;19.67;15.00;;;;;11.48;75.73;100083.03;4949319;28;47463;-90
2021/12/25 08:55:47;;;;;;;;;19.33;16.33;;;;;11.55;75.45;100094.59;4973033;28;45492;-96
2021/12/25 08:58:12;;;;;;;;;22.00;20.33;;;;;11.56;75.58;100104.28;4962401;28;45576;-92
2021/12/25 09:00:38;;;;;;;;;17.67;16.00;;;;;11.56;75.60;100093.78;4974753;28;45510;-92
2021/12/25 09:03:04;;;;;;;;;18.00;18.00;;;;;11.62;75.33;100100.97;4956532;28;47223;-90
2021/12/25 09:05:29;;;;;;;;;16.00;16.00;;;;;11.61;75.37;100110.59;4975660;28;45505;-90
2021/12/25 09:07:55;;;;;;;;;20.67;15.00;;;;;11.61;75.38;100102.69;4956036;28;45360;-90
2021/12/25 09:10:21;;;;;;;;;24.67;17.00;;;;;11.65;75.31;100100.16;4953002;28;45453;-91
2021/12/25 09:12:46;;;;;;;;;19.00;16.00;;;;;11.64;75.11;100098.38;4954119;28;47147;-92
2021/12/25 09:15:12;;;;;;;;;21.33;16.00;;;;;11.72;74.84;100104.75;4973089;28;45485;-91
2021/12/25 09:17:39;;;;;;;;;24.67;19.33;;;;;11.68;74.79;100103.75;4955208;28;45573;-92
2021/12/25 09:20:06;;;;;;;;;20.67;18.00;;;;;11.72;74.87;100107.38;4956393;28;45543;-91
2021/12/25 09:22:32;;;;;;;;;22.67;19.33;;;;;11.77;75.40;100110.16;4956884;28;47111;-90
2021/12/25 09:24:57;;;;;;;;;21.67;19.33;;;;;11.82;74.82;100109.44;4956523;28;45451;-95
2021/12/25 09:27:23;;;;;;;;;23.00;20.00;;;;;11.84;74.90;100109.47;4956985;28;45905;-96
2021/12/25 09:29:48;;;;;;;;;20.33;20.33;;;;;11.80;74.79;100111.13;4956559;28;45256;-93
2021/12/25 09:32:14;;;;;;;;;24.00;21.00;;;;;11.85;74.97;100116.53;4977889;28;47310;-91
2021/12/25 09:34:39;;;;;;;;;21.33;16.00;;;;;11.82;74.93;100101.56;4955551;28;45641;-92
2021/12/25 09:37:06;;;;;;;;;19.33;16.33;;;;;11.84;74.84;100104.22;4963092;28;45611;-92
2021/12/25 09:39:32;;;;;;;;;18.33;16.00;;;;;11.89;75.27;100101.72;4971670;28;45519;-92
2021/12/25 09:41:57;;;;;;;;;23.67;22.00;;;;;11.94;74.56;100108.91;4956178;28;46999;-93
2021/12/25 09:44:22;;;;;;;;;23.33;19.00;;;;;12.02;74.98;100116.13;4976569;28;45678;-95
2021/12/25 09:46:48;;;;;;;;;20.00;19.67;;;;;12.01;74.38;100111.75;4962491;28;44799;-96
2021/12/25 09:49:13;;;;;;;;;20.67;18.00;;;;;11.91;74.79;100097.41;4984473;22;45537;-96
2021/12/25 09:51:39;;;;;;;;;21.00;18.00;;;;;12.15;74.81;100127.94;4943223;28;46929;-96
2021/12/25 09:54:12;;;;;;;;;27.67;22.00;;;;;12.00;74.46;100097.69;4942163;28;45332;-96
2021/12/25 09:56:39;;;;;;;;;21.67;19.00;;;;;12.26;74.67;100121.25;4941876;28;45757;-96
2021/12/25 09:59:06;;;;;;;;;19.67;16.00;;;;;12.27;75.10;100109.88;4941910;28;45364;-95
2021/12/25 10:01:43;;;;;;;;;24.67;20.67;;;;;12.48;73.40;100126.22;4960294;28;47566;-96
2021/12/25 10:04:28;;;;;;;;;19.67;18.33;;;;;12.56;73.81;100118.53;4941679;28;46584;-95
2021/12/25 10:07:19;;;;;;;;;20.67;18.33;;;;;12.61;73.25;100122.16;4977442;28;45354;-96
2021/12/25 10:10:01;;;;;;;;;17.00;16.00;;;;;12.56;73.51;100108.00;4933864;28;45547;-95
2021/12/25 10:12:49;;;;;;;;;23.00;17.00;;;;;12.59;73.14;100122.16;4920820;28;46447;-92
2021/12/25 10:15:21;;;;;;;;;19.67;18.00;;;;;12.60;73.67;100123.03;4936685;28;45514;-96
2021/12/25 10:17:50;;;;;;;;;22.33;21.33;;;;;12.61;72.81;100123.06;4929944;28;45271;-95
2021/12/25 10:20:20;;;;;;;;;18.33;15.00;;;;;12.54;72.91;100113.22;4932079;28;45408;-95
2021/12/25 10:23:12;;;;;;;;;21.33;18.33;;;;;12.55;73.07;100119.38;4938448;28;45439;-93
2021/12/25 10:25:49;;;;;;;;;20.67;15.33;;;;;12.55;73.07;100117.63;4933760;28;45454;-93
2021/12/25 10:28:18;;;;;;;;;16.67;16.00;;;;;12.52;73.29;100101.78;4932311;28;45407;-94
2021/12/25 10:30:58;;;;;;;;;15.33;12.33;;;;;12.59;73.41;100108.97;4928140;28;45970;-94
2021/12/25 10:33:34;;;;;;;;;22.33;19.00;;;;;12.66;73.25;100115.28;4928167;28;45680;-93
2021/12/25 10:36:04;;;;;;;;;20.67;15.67;;;;;12.78;73.26;100113.84;4930546;28;45858;-94
2021/12/25 10:38:30;;;;;;;;;24.67;20.67;;;;;12.85;73.31;100100.88;4934793;28;45342;-93
2021/12/25 10:41:11;;;;;;;;;28.00;23.00;;;;;13.02;73.00;100110.94;4937848;28;45431;-94
2021/12/25 10:43:41;;;;;;;;;24.00;18.33;;;;;13.10;73.18;100110.22;4936118;28;48167;-94
2021/12/25 10:46:06;;;;;;;;;23.00;15.33;;;;;13.20;72.66;100112.22;4938223;28;45615;-94
2021/12/25 10:48:32;;;;;;;;;20.00;17.33;;;;;13.21;72.62;100102.59;4936602;28;45334;-94
2021/12/25 10:50:58;;;;;;;;;23.00;14.33;;;;;13.28;72.07;100097.50;4936461;28;45313;-94
2021/12/25 10:53:43;;;;;;;;;23.33;19.33;;;;;13.34;72.47;100103.78;4935877;28;47247;-92
2021/12/25 10:56:15;;;;;;;;;16.33;15.00;;;;;13.35;72.24;100102.94;4930695;28;45319;-94
2021/12/25 10:58:42;;;;;;;;;20.33;16.00;;;;;13.25;71.99;100097.41;4935418;28;45508;-94
2021/12/25 11:01:10;;;;;;;;;20.00;13.67;;;;;13.23;72.53;100093.88;4934476;28;45393;-93
2021/12/25 11:03:39;;;;;;;;;16.33;15.00;;;;;13.14;71.98;100083.97;4935492;28;47094;-96
2021/12/25 11:06:06;;;;;;;;;21.33;16.67;;;;;13.19;72.33;100086.75;4937099;28;45390;-94
2021/12/25 11:08:33;;;;;;;;;17.67;14.67;;;;;13.23;72.11;100077.16;4937721;28;45363;-95
2021/12/25 11:11:01;;;;;;;;;14.33;12.00;;;;;13.31;71.93;100078.22;4939685;28;45145;-96
2021/12/25 11:13:29;;;;;;;;;19.33;15.67;;;;;13.39;72.43;100076.69;4936349;28;46324;-96
2021/12/25 11:16:04;;;;;;;;;21.00;18.00;;;;;13.42;71.68;100078.50;4924713;28;45596;-96
2021/12/25 11:18:50;;;;;;;;;17.67;16.67;;;;;13.45;72.03;100073.25;4932145;28;45530;-96
2021/12/25 11:21:16;;;;;;;;;14.67;14.67;;;;;13.41;71.74;100069.69;4925805;28;45521;-96
2021/12/25 11:23:41;;;;;;;;;19.00;18.33;;;;;13.45;71.57;100073.25;4941874;28;46793;-96
2021/12/25 11:26:07;;;;;;;;;18.33;13.00;;;;;13.44;72.16;100060.06;4937929;28;45523;-95
2021/12/25 11:28:33;;;;;;;;;21.33;18.33;;;;;13.49;71.59;100063.69;4934122;28;45312;-96
2021/12/25 11:30:58;;;;;;;;;20.00;16.67;;;;;13.46;71.51;100071.53;4942255;28;44848;-93
2021/12/25 11:33:23;;;;;;;;;17.67;16.33;;;;;13.48;71.71;100068.06;4937825;28;45457;-95
2021/12/25 11:35:49;;;;;;;;;16.33;15.00;;;;;13.52;70.95;100055.84;4931993;28;45484;-95
2021/12/25 11:38:14;;;;;;;;;22.67;19.33;;;;;13.57;71.17;100062.16;4939756;28;45355;-94
2021/12/25 11:40:48;;;;;;;;;15.67;14.00;;;;;13.56;71.13;100057.69;4955550;28;45336;-96
2021/12/25 11:43:14;;;;;;;;;15.00;12.33;;;;;13.62;71.61;100062.25;4934007;28;45565;-94
2021/12/25 11:45:41;;;;;;;;;17.67;14.00;;;;;13.70;71.60;100057.16;4937301;28;45367;-94
2021/12/25 11:48:19;;;;;;;;;18.33;18.00;;;;;13.68;71.18;100048.31;4935452;28;45339;-93
2021/12/25 11:50:48;;;;;;;;;20.00;18.00;;;;;13.70;71.07;100052.75;4933767;28;45482;-95
2021/12/25 11:56:22;;;;;;;;;22.67;21.00;;;;;13.51;71.43;100017.16;4984511;23;44910;-96
2021/12/25 11:58:54;;;;;;;;;26.33;21.67;;;;;13.69;71.51;100055.34;4924516;28;45252;-95
2021/12/25 12:01:38;;;;;;;;;25.00;16.67;;;;;13.72;71.26;100052.78;4932400;28;45375;-94
2021/12/25 12:04:19;;;;;;;;;19.67;17.00;;;;;13.77;71.65;100048.50;4907164;28;48401;-93
2021/12/25 12:06:48;;;;;;;;;20.00;20.00;;;;;13.84;71.62;100047.75;4912069;28;45456;-95
2021/12/25 12:09:14;;;;;;;;;23.67;16.33;;;;;13.87;71.21;100040.75;4940012;28;45380;-96
2021/12/25 12:11:43;;;;;;;;;25.00;23.67;;;;;13.78;71.06;100033.56;4923784;28;45359;-96
2021/12/25 12:14:17;;;;;;;;;16.33;13.00;;;;;13.84;70.44;100047.75;4935483;28;45782;-96
2021/12/25 12:16:48;;;;;;;;;21.00;17.00;;;;;13.78;70.97;100045.00;4923681;28;45464;-96
2021/12/25 12:19:39;;;;;;;;;18.33;18.00;;;;;13.78;71.68;100046.75;4917734;28;45447;-96
2021/12/25 12:22:28;;;;;;;;;16.67;16.00;;;;;13.78;70.56;100041.47;4920159;28;45423;-96
2021/12/25 12:27:30;;;;;;;;;21.33;20.67;;;;;13.72;70.74;100047.50;4929116;28;45194;-96
2021/12/25 12:29:57;;;;;;;;;24.67;20.67;;;;;13.67;71.17;100042.13;4935204;28;45629;-96
2021/12/25 12:32:23;;;;;;;;;22.00;19.33;;;;;13.67;71.25;100052.69;4933161;28;44889;-96
2021/12/25 12:34:51;;;;;;;;;38.33;34.67;;;;;13.60;71.13;100030.59;4943893;28;45559;-96
2021/12/25 12:40:06;;;;;;;;;19.33;19.00;;;;;13.47;70.60;100036.41;4945758;28;44753;-96
2021/12/25 12:42:48;;;;;;;;;22.67;20.67;;;;;13.37;71.26;100036.22;4932955;28;45634;-95
2021/12/25 12:45:16;;;;;;;;;20.33;18.00;;;;;13.33;71.97;100030.81;4940557;28;47918;-96
2021/12/25 12:48:22;;;;;;;;;21.67;19.00;;;;;13.18;71.57;100005.91;4939909;28;44876;-94
2021/12/25 12:50:50;;;;;;;;;19.67;19.67;;;;;13.22;71.63;100026.19;4956495;28;45331;-96
2021/12/25 12:53:17;;;;;;;;;19.00;14.33;;;;;13.18;72.16;100024.34;4956862;28;45380;-93
2021/12/25 12:55:46;;;;;;;;;20.00;18.00;;;;;13.24;71.99;100039.41;4942480;28;48710;-94
2021/12/25 12:58:25;;;;;;;;;22.67;19.33;;;;;13.24;72.10;100047.31;4941395;28;45576;-91
2021/12/25 13:00:55;;;;;;;;;32.00;26.67;;;;;13.18;71.74;100040.16;4941491;28;45209;-93
2021/12/25 13:03:21;;;;;;;;;28.00;28.00;;;;;13.09;71.85;100029.41;4950969;28;45228;-92
2021/12/25 13:05:56;;;;;;;;;30.33;28.67;;;;;13.09;71.95;100040.81;4936655;28;46980;-92
2021/12/25 13:08:34;;;;;;;;;35.00;30.33;;;;;13.06;71.73;100046.03;4945498;28;45466;-93
2021/12/25 13:11:14;;;;;;;;;32.33;26.67;;;;;12.98;72.03;100039.69;4934039;28;45473;-93
2021/12/25 13:13:51;;;;;;;;;30.00;24.67;;;;;13.01;72.08;100048.56;4934332;28;45927;-90
2021/12/25 13:16:18;;;;;;;;;23.00;21.33;;;;;12.97;72.05;100046.69;4934231;28;47588;-90
2021/12/25 13:18:46;;;;;;;;;31.67;26.33;;;;;12.91;72.14;100042.16;4938653;28;45368;-90
2021/12/25 13:21:15;;;;;;;;;25.33;23.67;;;;;12.93;72.55;100050.13;4947658;28;47793;-90
2021/12/25 13:23:49;;;;;;;;;28.67;23.00;;;;;12.94;72.28;100041.34;4940920;28;45957;-91
2021/12/25 13:26:16;;;;;;;;;24.33;23.67;;;;;13.00;72.84;100048.50;4945240;28;46313;-90
2021/12/25 13:28:44;;;;;;;;;31.33;25.67;;;;;13.00;72.23;100035.34;4938346;28;45816;-91
2021/12/25 13:31:13;;;;;;;;;28.67;25.00;;;;;12.99;71.90;100034.44;4941690;28;45445;-91
2021/12/25 13:33:52;;;;;;;;;37.00;29.67;;;;;13.03;71.82;100043.31;4946314;28;45635;-90
2021/12/25 13:36:20;;;;;;;;;27.00;24.33;;;;;13.08;72.08;100039.06;4926555;28;46192;-90
2021/12/25 13:39:00;;;;;;;;;33.00;26.67;;;;;13.09;72.35;100037.31;4945250;28;45525;-90
2021/12/25 13:41:54;;;;;;;;;29.00;22.33;;;;;13.14;71.87;100040.97;4935771;28;45441;-90
2021/12/25 13:44:23;;;;;;;;;32.67;27.00;;;;;13.11;72.36;100039.13;4946906;28;45562;-91
2021/12/25 13:47:14;;;;;;;;;28.33;23.33;;;;;13.19;72.33;100044.59;4932330;28;47250;-90
2021/12/25 13:49:46;;;;;;;;;26.00;22.33;;;;;13.18;71.95;100042.78;4927451;28;45472;-90
2021/12/25 13:52:23;;;;;;;;;23.33;21.33;;;;;13.12;71.87;100037.38;4934670;28;45402;-90
2021/12/25 13:54:58;;;;;;;;;21.33;19.33;;;;;13.12;71.93;100043.53;4938696;28;45604;-90
2021/12/25 13:57:26;;;;;;;;;18.33;18.33;;;;;13.04;71.98;100046.00;4917306;28;48297;-89
2021/12/25 13:59:54;;;;;;;;;18.00;17.33;;;;;12.93;72.33;100035.22;4940191;28;45374;-90
2021/12/25 14:02:21;;;;;;;;;23.00;19.33;;;;;12.93;72.25;100040.47;4943023;28;45704;-89
2021/12/25 14:04:51;;;;;;;;;25.33;21.00;;;;;12.88;72.07;100033.31;4949016;28;45494;-91
2021/12/25 14:07:18;;;;;;;;;31.00;23.67;;;;;12.82;72.54;100034.94;4932315;28;48349;-91
2021/12/25 14:10:07;;;;;;;;;23.67;22.67;;;;;12.84;72.30;100042.88;4945228;28;45472;-91
2021/12/25 14:12:34;;;;;;;;;24.00;18.00;;;;;12.79;72.22;100037.50;4924883;28;45410;-91
2021/12/25 14:15:00;;;;;;;;;31.67;30.33;;;;;12.73;72.55;100038.22;4946826;28;45431;-91
2021/12/25 14:17:26;;;;;;;;;23.00;20.33;;;;;12.67;71.87;100035.47;4931963;28;48650;-91
2021/12/25 14:20:22;;;;;;;;;29.00;26.33;;;;;12.62;72.31;100037.97;4933074;28;45536;-91
2021/12/25 14:22:59;;;;;;;;;30.67;27.00;;;;;12.65;72.63;100049.44;4931876;28;45528;-91
2021/12/25 14:25:31;;;;;;;;;30.33;27.33;;;;;12.64;72.48;100053.81;4928081;28;45498;-91
2021/12/25 14:28:02;;;;;;;;;32.33;27.33;;;;;12.60;72.10;100046.69;4931755;28;48351;-91
2021/12/25 14:30:29;;;;;;;;;31.00;24.00;;;;;12.60;72.12;100051.94;4935651;28;45368;-91
2021/12/25 14:32:54;;;;;;;;;31.33;27.33;;;;;12.55;72.51;100049.19;4934411;28;45455;-91
2021/12/25 14:35:21;;;;;;;;;30.00;28.67;;;;;12.57;72.73;100051.88;4936682;28;45670;-91
2021/12/25 14:37:47;;;;;;;;;35.33;31.33;;;;;12.54;72.86;100057.03;4941103;28;46200;-91
2021/12/25 14:40:21;;;;;;;;;36.33;30.33;;;;;12.50;72.98;100051.69;4933912;28;46532;-90
2021/12/25 14:42:53;;;;;;;;;36.33;30.33;;;;;12.51;72.80;100048.22;4938707;28;45629;-89
2021/12/25 14:45:20;;;;;;;;;25.00;25.00;;;;;12.50;72.49;100041.16;4961537;28;45712;-92
2021/12/25 14:47:47;;;;;;;;;27.00;25.67;;;;;12.54;73.23;100050.03;4931179;28;47571;-88
2021/12/25 14:50:15;;;;;;;;;31.67;28.33;;;;;12.52;72.80;100047.34;4934263;28;46315;-90
2021/12/25 14:52:41;;;;;;;;;32.00;26.67;;;;;12.48;73.03;100050.78;4931158;28;45771;-89
2021/12/25 14:55:17;;;;;;;;;31.00;30.33;;;;;12.46;73.31;100044.59;4940343;28;45866;-90
2021/12/25 14:57:43;;;;;;;;;38.50;31.75;;;;;12.47;72.90;100042.84;4933220;28;47931;-91
2021/12/25 15:00:10;;;;;;;;;31.50;30.50;;;;;12.51;72.72;100049.97;4939580;28;45514;-90
2021/12/25 15:02:36;;;;;;;;;44.25;34.25;;;;;12.48;73.07;100047.25;4956865;28;45524;-91
2021/12/25 15:05:02;;;;;;;;;37.75;33.75;;;;;12.51;73.20;100045.59;4935272;28;45444;-91
2021/12/25 15:07:28;;;;;;;;;39.75;34.25;;;;;12.52;73.10;100050.00;4951417;28;47754;-91
2021/12/25 15:09:57;;;;;;;;;45.50;38.25;;;;;12.48;73.03;100053.41;4935279;28;45452;-92
2021/12/25 15:12:25;;;;;;;;;40.00;34.25;;;;;12.50;72.83;100059.59;4940192;28;45326;-92
2021/12/25 15:15:04;;;;;;;;;35.75;33.25;;;;;12.48;73.03;100056.03;4950414;28;45567;-90
2021/12/25 15:17:31;;;;;;;;;29.25;27.50;;;;;12.44;73.01;100050.66;4955934;28;45751;-90
2021/12/25 15:20:06;;;;;;;;;34.25;31.75;;;;;12.43;72.71;100055.03;4936171;28;45439;-90
2021/12/25 15:22:32;;;;;;;;;43.25;33.75;;;;;12.43;73.05;100060.28;4933745;28;45527;-91
2021/12/25 15:25:11;;;;;;;;;39.75;34.00;;;;;12.42;73.54;100058.50;4931763;28;45548;-92
2021/12/25 15:27:41;;;;;;;;;41.25;35.00;;;;;12.45;73.39;100058.56;4934432;28;48121;-92
2021/12/25 15:30:17;;;;;;;;;38.25;30.50;;;;;12.43;73.29;100062.91;4933806;28;45752;-90
2021/12/25 15:32:45;;;;;;;;;33.33;26.67;;;;;12.42;73.34;100065.53;4949105;28;45298;-91
2021/12/25 15:35:13;;;;;;;;;32.00;32.00;;;;;12.37;73.55;100068.03;4928068;28;45757;-90
2021/12/25 15:37:48;;;;;;;;;33.00;31.00;;;;;12.37;73.64;100062.78;4952921;28;45600;-91
2021/12/25 15:40:27;;;;;;;;;39.00;35.50;;;;;12.39;73.55;100074.22;4950588;28;45925;-91
2021/12/25 15:42:52;;;;;;;;;43.75;35.75;;;;;12.34;73.59;100058.31;4949791;28;45317;-90
2021/12/25 15:45:19;;;;;;;;;46.25;38.50;;;;;12.39;73.58;100074.22;4957494;28;45272;-90
2021/12/25 15:47:47;;;;;;;;;65.50;51.50;;;;;12.38;74.02;100067.16;4963220;28;45410;-91
2021/12/25 15:50:18;;;;;;;;;53.25;43.50;;;;;12.40;73.62;100075.97;4935353;28;45726;-91
2021/12/25 15:52:43;;;;;;;;;49.00;40.00;;;;;12.34;73.03;100060.94;4961413;28;46086;-90
2021/12/25 15:55:11;;;;;;;;;36.25;33.75;;;;;12.37;73.79;100073.28;4958984;28;45791;-91
2021/12/25 15:57:37;;;;;;;;;55.00;44.25;;;;;12.34;73.87;100076.72;4957454;28;45885;-90
2021/12/25 16:00:06;;;;;;;;;42.00;37.00;;;;;12.37;74.18;100075.94;4950983;28;45812;-91
2021/12/25 16:02:31;;;;;;;;;45.00;37.00;;;;;12.34;73.99;100065.31;4946679;28;45673;-92
2021/12/25 16:04:57;;;;;;;;;49.25;42.00;;;;;12.36;74.01;100082.03;4952407;28;45555;-93
2021/12/25 16:07:23;;;;;;;;;43.00;35.50;;;;;12.26;73.97;100063.38;4932207;28;47117;-91
2021/12/25 16:09:49;;;;;;;;;40.75;34.75;;;;;12.32;73.79;100080.19;4956797;28;45455;-91
2021/12/25 16:12:14;;;;;;;;;48.75;37.25;;;;;12.29;74.13;100081.84;4933910;28;45354;-92
2021/12/25 16:14:40;;;;;;;;;19.75;12.50;;;;;12.32;73.92;100083.66;4955750;28;45555;-92
2021/12/25 16:17:07;;;;;;;;;45.50;37.00;;;;;12.33;73.86;100093.38;4954339;28;46525;-90
2021/12/25 16:19:32;;;;;;;;;50.25;38.50;;;;;12.27;73.73;100085.28;4932436;28;45417;-92
2021/12/25 16:21:59;;;;;;;;;42.25;37.75;;;;;12.27;73.52;100090.53;4953381;28;45825;-92
2021/12/25 16:24:24;;;;;;;;;47.25;39.75;;;;;12.27;73.90;100104.59;4963851;28;45594;-91
2021/12/25 16:26:50;;;;;;;;;44.00;35.25;;;;;12.27;74.00;100094.06;4955185;28;45646;-91
2021/12/25 16:29:16;;;;;;;;;46.25;39.00;;;;;12.25;73.81;100087.88;4948113;28;45525;-93
2021/12/25 16:31:42;;;;;;;;;45.50;35.25;;;;;12.26;73.48;100092.31;4932050;28;45443;-92
2021/12/25 16:34:09;;;;;;;;;44.75;37.25;;;;;12.24;73.74;100095.75;4959695;28;45543;-93
2021/12/25 16:36:36;;;;;;;;;49.00;38.75;;;;;12.21;73.71;100090.41;4933830;28;48374;-92
2021/12/25 16:39:06;;;;;;;;;48.50;37.00;;;;;12.21;74.03;100096.56;4950505;28;46747;-92
2021/12/25 16:41:33;;;;;;;;;52.50;42.25;;;;;12.17;73.95;100089.41;4955922;28;45421;-91
2021/12/25 16:43:58;;;;;;;;;52.75;41.00;;;;;12.19;74.07;100095.59;4931218;28;45586;-91
2021/12/25 16:46:23;;;;;;;;;52.50;40.75;;;;;12.16;73.71;100098.16;4947493;28;46505;-91
2021/12/25 16:48:49;;;;;;;;;48.50;41.50;;;;;12.17;73.48;100102.56;4934284;28;45666;-91
2021/12/25 16:51:14;;;;;;;;;52.00;43.25;;;;;12.13;74.12;100091.06;4949021;28;45608;-93
2021/12/25 16:53:40;;;;;;;;;53.50;41.25;;;;;12.17;74.33;100092.94;4951486;28;45313;-96
2021/12/25 16:56:06;;;;;;;;;50.50;41.25;;;;;12.17;73.96;100092.94;4935603;28;47325;-93
2021/12/25 16:58:31;;;;;;;;;52.50;43.00;;;;;12.17;74.21;100086.78;4955199;28;45467;-93
2021/12/25 17:00:57;;;;;;;;;53.50;43.00;;;;;12.22;73.92;100093.06;4935665;28;45819;-93
2021/12/25 17:03:22;;;;;;;;;54.00;41.00;;;;;12.18;73.68;100092.09;4930851;28;45407;-91
2021/12/25 17:05:49;;;;;;;;;58.50;44.50;;;;;12.18;74.11;100094.72;4950946;28;47412;-91
2021/12/25 17:08:16;;;;;;;;;51.00;40.75;;;;;12.22;73.76;100092.16;4952678;28;45457;-92
2021/12/25 17:10:42;;;;;;;;;58.75;43.50;;;;;12.21;74.35;100090.41;4953706;28;45471;-92
2021/12/25 17:13:09;;;;;;;;;53.75;44.50;;;;;12.25;74.17;100101.03;4931043;28;45448;-92
2021/12/25 17:15:38;;;;;;;;;55.50;43.50;;;;;12.27;74.60;100099.34;4941529;28;47180;-92
2021/12/25 17:18:04;;;;;;;;;53.00;44.75;;;;;12.24;74.35;100082.59;4952355;28;45744;-91
2021/12/25 17:20:33;;;;;;;;;54.00;41.75;;;;;12.30;74.33;100090.63;4954469;28;45522;-92
2021/12/25 17:22:59;;;;;;;;;50.25;40.00;;;;;12.33;73.74;100100.34;4931577;28;45355;-92
2021/12/25 17:25:26;;;;;;;;;51.50;40.75;;;;;12.30;73.63;100095.91;4949188;28;45465;-92
2021/12/25 17:27:55;;;;;;;;;53.75;43.00;;;;;12.26;73.85;100100.22;4951534;28;45678;-92
2021/12/25 17:30:30;;;;;;;;;54.50;43.00;;;;;12.21;73.82;100098.28;4956079;28;45420;-92
2021/12/25 17:32:57;;;;;;;;;57.75;44.25;;;;;12.19;74.31;100098.22;4930926;28;46539;-92
2021/12/25 17:35:23;;;;;;;;;62.00;48.75;;;;;12.17;74.52;100094.66;4934430;28;47478;-92
2021/12/25 17:37:48;;;;;;;;;59.75;46.00;;;;;12.17;74.23;100089.41;4932191;28;45508;-92
2021/12/25 17:40:21;;;;;;;;;63.00;48.50;;;;;12.18;73.84;100089.47;4934254;28;45550;-92
2021/12/25 17:42:48;;;;;;;;;63.00;49.50;;;;;12.22;74.92;100087.78;4948658;28;45675;-92
2021/12/25 17:45:22;;;;;;;;;58.00;47.50;;;;;12.24;74.19;100083.47;4931974;28;48329;-92
2021/12/25 17:47:48;;;;;;;;;56.25;44.50;;;;;12.27;74.54;100087.91;4932579;28;45549;-92
2021/12/25 17:50:25;;;;;;;;;66.00;47.25;;;;;12.29;74.23;100094.13;4934418;28;45513;-92
2021/12/25 17:52:51;;;;;;;;;59.00;47.25;;;;;12.25;74.63;100084.34;4931382;28;45539;-91
2021/12/25 17:55:17;;;;;;;;;63.00;49.00;;;;;12.28;74.75;100087.09;4931834;28;48233;-91
2021/12/25 17:57:44;;;;;;;;;58.00;45.50;;;;;12.33;74.61;100098.63;4947081;28;45438;-91
2021/12/25 18:00:13;;;;;;;;;57.00;47.00;;;;;12.29;74.06;100084.47;4947612;28;45431;-92
2021/12/25 18:02:39;;;;;;;;;60.00;47.75;;;;;12.32;74.32;100090.69;4953104;28;45707;-92
2021/12/25 18:05:07;;;;;;;;;67.00;51.75;;;;;12.29;74.61;100084.47;4934274;28;48260;-92
2021/12/25 18:07:33;;;;;;;;;59.75;47.75;;;;;12.34;74.50;100092.53;4935211;28;45477;-91
2021/12/25 18:09:59;;;;;;;;;59.50;48.25;;;;;12.34;74.54;100092.53;4952393;28;45544;-91
2021/12/25 18:12:28;;;;;;;;;61.00;48.50;;;;;12.31;74.46;100075.75;4935963;28;45401;-91
2021/12/25 18:14:54;;;;;;;;;61.75;48.75;;;;;12.40;74.04;100086.50;4935882;28;47288;-91
2021/12/25 18:17:19;;;;;;;;;67.00;49.25;;;;;12.37;74.38;100081.19;4954342;28;45796;-92
2021/12/25 18:19:44;;;;;;;;;58.50;48.00;;;;;12.43;74.13;100096.25;4936336;28;45906;-92
2021/12/25 18:22:10;;;;;;;;;62.50;49.75;;;;;12.39;74.01;100098.81;4937234;28;45457;-91
2021/12/25 18:24:35;;;;;;;;;61.25;47.75;;;;;12.40;73.73;100102.31;4951699;28;47018;-92
2021/12/25 18:27:02;;;;;;;;;59.50;48.00;;;;;12.32;73.89;100095.97;4951315;28;45527;-91
2021/12/25 18:29:27;;;;;;;;;63.00;49.25;;;;;12.32;73.94;100093.34;4937586;28;45611;-92
2021/12/25 18:31:53;;;;;;;;;63.50;48.75;;;;;12.25;74.37;100077.34;4936948;28;45338;-93
2021/12/25 18:34:19;;;;;;;;;63.50;50.50;;;;;12.29;74.41;100092.38;4936883;28;47348;-94
2021/12/25 18:36:44;;;;;;;;;60.50;47.00;;;;;12.33;74.00;100092.47;4948338;28;45362;-92
2021/12/25 18:39:11;;;;;;;;;65.50;50.50;;;;;12.36;74.24;100092.56;4950041;28;45492;-90
2021/12/25 18:41:37;;;;;;;;;63.50;47.50;;;;;12.37;74.15;100089.97;4953545;28;45586;-93
2021/12/25 18:44:05;;;;;;;;;57.75;44.75;;;;;12.39;73.93;100097.91;4933830;28;47069;-92
2021/12/25 18:46:32;;;;;;;;;54.25;45.25;;;;;12.33;73.94;100097.72;4934483;28;45381;-94
2021/12/25 18:49:00;;;;;;;;;59.25;47.00;;;;;12.33;73.95;100100.34;4930835;28;45555;-93
2021/12/25 18:51:26;;;;;;;;;58.00;48.50;;;;;12.36;74.22;100114.50;4919543;28;45430;-93